sensor_id;sensor_type;location;lat;lon;timestamp;P1;durP1;ratioP1;P2;durP2;ratioP2
70707;SDS011;58277;47.316;18.908;2023-05-07T00:00:15;16.27;;;9.93;;
70707;SDS011;58277;47.316;18.908;2023-05-07T00:02:40;16.17;;;9.95;;
70707;SDS011;58277;47.316;18.908;2023-05-07T00:05:03;15.13;;;9.65;;
70707;SDS011;58277;47.316;18.908;2023-05-07T00:07:27;13.57;;;8.85;;
70707;SDS011;58277;47.316;18.908;2023-05-07T00:09:50;14.63;;;9.23;;
70707;SDS011;58277;47.316;18.908;2023-05-07T00:12:13;15.15;;;9.35;;
70707;SDS011;58277;47.316;18.908;2023-05-07T00:14:36;14.98;;;8.90;;
70707;SDS011;58277;47.316;18.908;2023-05-07T00:16:59;15.35;;;9.88;;
70707;SDS011;58277;47.316;18.908;2023-05-07T00:19:21;14.98;;;8.68;;
70707;SDS011;58277;47.316;18.908;2023-05-07T00:21:44;13.35;;;8.55;;
70707;SDS011;58277;47.316;18.908;2023-05-07T00:24:07;13.45;;;8.35;;
70707;SDS011;58277;47.316;18.908;2023-05-07T00:26:30;12.30;;;7.70;;
70707;SDS011;58277;47.316;18.908;2023-05-07T00:28:53;11.95;;;7.93;;
70707;SDS011;58277;47.316;18.908;2023-05-07T00:31:21;12.25;;;8.55;;
70707;SDS011;58277;47.316;18.908;2023-05-07T00:33:43;13.00;;;7.45;;
70707;SDS011;58277;47.316;18.908;2023-05-07T00:36:06;14.20;;;8.00;;
70707;SDS011;58277;47.316;18.908;2023-05-07T00:38:29;12.90;;;8.20;;
70707;SDS011;58277;47.316;18.908;2023-05-07T00:40:52;13.77;;;8.40;;
70707;SDS011;58277;47.316;18.908;2023-05-07T00:43:15;14.60;;;8.40;;
70707;SDS011;58277;47.316;18.908;2023-05-07T00:45:37;15.80;;;9.00;;
70707;SDS011;58277;47.316;18.908;2023-05-07T00:48:01;13.30;;;8.52;;
70707;SDS011;58277;47.316;18.908;2023-05-07T00:50:25;14.27;;;8.90;;
70707;SDS011;58277;47.316;18.908;2023-05-07T00:52:48;15.32;;;9.35;;
70707;SDS011;58277;47.316;18.908;2023-05-07T00:55:11;15.90;;;8.88;;
70707;SDS011;58277;47.316;18.908;2023-05-07T00:57:37;14.23;;;8.88;;
70707;SDS011;58277;47.316;18.908;2023-05-07T01:00:03;14.55;;;8.85;;
70707;SDS011;58277;47.316;18.908;2023-05-07T01:02:27;16.05;;;9.05;;
70707;SDS011;58277;47.316;18.908;2023-05-07T01:04:49;15.20;;;9.30;;
70707;SDS011;58277;47.316;18.908;2023-05-07T01:07:13;13.73;;;8.48;;
70707;SDS011;58277;47.316;18.908;2023-05-07T01:09:36;14.50;;;9.20;;
70707;SDS011;58277;47.316;18.908;2023-05-07T01:11:59;15.27;;;9.45;;
70707;SDS011;58277;47.316;18.908;2023-05-07T01:14:22;14.95;;;9.20;;
70707;SDS011;58277;47.316;18.908;2023-05-07T01:16:44;14.13;;;9.02;;
70707;SDS011;58277;47.316;18.908;2023-05-07T01:19:08;15.75;;;9.48;;
70707;SDS011;58277;47.316;18.908;2023-05-07T01:21:34;15.40;;;9.27;;
70707;SDS011;58277;47.316;18.908;2023-05-07T01:24:00;14.77;;;9.30;;
70707;SDS011;58277;47.316;18.908;2023-05-07T01:26:25;14.20;;;8.65;;
70707;SDS011;58277;47.316;18.908;2023-05-07T01:28:48;14.27;;;9.07;;
70707;SDS011;58277;47.316;18.908;2023-05-07T01:31:12;14.20;;;9.07;;
70707;SDS011;58277;47.316;18.908;2023-05-07T01:33:35;15.80;;;9.80;;
70707;SDS011;58277;47.316;18.908;2023-05-07T01:36:00;15.82;;;9.07;;
70707;SDS011;58277;47.316;18.908;2023-05-07T01:38:46;15.00;;;9.50;;
70707;SDS011;58277;47.316;18.908;2023-05-07T01:41:10;15.85;;;9.40;;
70707;SDS011;58277;47.316;18.908;2023-05-07T01:43:35;16.95;;;8.40;;
70707;SDS011;58277;47.316;18.908;2023-05-07T01:45:58;13.50;;;8.50;;
70707;SDS011;58277;47.316;18.908;2023-05-07T01:48:22;13.88;;;8.48;;
70707;SDS011;58277;47.316;18.908;2023-05-07T01:50:47;13.75;;;8.27;;
70707;SDS011;58277;47.316;18.908;2023-05-07T01:53:10;13.45;;;7.43;;
70707;SDS011;58277;47.316;18.908;2023-05-07T01:55:33;12.80;;;7.85;;
70707;SDS011;58277;47.316;18.908;2023-05-07T01:57:56;12.37;;;7.33;;
70707;SDS011;58277;47.316;18.908;2023-05-07T02:00:19;12.80;;;7.72;;
70707;SDS011;58277;47.316;18.908;2023-05-07T02:02:42;13.02;;;7.55;;
70707;SDS011;58277;47.316;18.908;2023-05-07T02:05:16;12.52;;;7.90;;
70707;SDS011;58277;47.316;18.908;2023-05-07T02:07:43;12.18;;;7.57;;
70707;SDS011;58277;47.316;18.908;2023-05-07T02:10:06;13.43;;;7.33;;
70707;SDS011;58277;47.316;18.908;2023-05-07T02:12:29;12.43;;;7.45;;
70707;SDS011;58277;47.316;18.908;2023-05-07T02:14:52;14.13;;;7.80;;
70707;SDS011;58277;47.316;18.908;2023-05-07T02:17:15;13.15;;;7.57;;
70707;SDS011;58277;47.316;18.908;2023-05-07T02:19:37;11.90;;;7.70;;
70707;SDS011;58277;47.316;18.908;2023-05-07T02:22:00;13.35;;;7.55;;
70707;SDS011;58277;47.316;18.908;2023-05-07T02:24:25;13.70;;;8.23;;
70707;SDS011;58277;47.316;18.908;2023-05-07T02:26:48;13.00;;;7.97;;
70707;SDS011;58277;47.316;18.908;2023-05-07T02:29:10;13.93;;;7.80;;
70707;SDS011;58277;47.316;18.908;2023-05-07T02:31:34;13.23;;;7.68;;
70707;SDS011;58277;47.316;18.908;2023-05-07T02:33:56;13.05;;;8.07;;
70707;SDS011;58277;47.316;18.908;2023-05-07T02:36:19;14.02;;;8.20;;
70707;SDS011;58277;47.316;18.908;2023-05-07T02:38:48;13.07;;;8.15;;
70707;SDS011;58277;47.316;18.908;2023-05-07T02:41:11;14.10;;;8.30;;
70707;SDS011;58277;47.316;18.908;2023-05-07T02:43:34;16.08;;;8.63;;
70707;SDS011;58277;47.316;18.908;2023-05-07T02:46:03;16.27;;;9.13;;
70707;SDS011;58277;47.316;18.908;2023-05-07T02:48:30;15.15;;;9.10;;
70707;SDS011;58277;47.316;18.908;2023-05-07T02:50:53;15.30;;;8.90;;
70707;SDS011;58277;47.316;18.908;2023-05-07T02:53:16;15.13;;;8.55;;
70707;SDS011;58277;47.316;18.908;2023-05-07T02:55:38;13.90;;;8.27;;
70707;SDS011;58277;47.316;18.908;2023-05-07T02:58:01;13.65;;;8.70;;
70707;SDS011;58277;47.316;18.908;2023-05-07T03:00:27;13.55;;;8.43;;
70707;SDS011;58277;47.316;18.908;2023-05-07T03:03:00;14.05;;;8.75;;
70707;SDS011;58277;47.316;18.908;2023-05-07T03:05:23;14.82;;;8.57;;
70707;SDS011;58277;47.316;18.908;2023-05-07T03:07:46;16.80;;;9.43;;
70707;SDS011;58277;47.316;18.908;2023-05-07T03:10:10;14.73;;;9.07;;
70707;SDS011;58277;47.316;18.908;2023-05-07T03:12:33;17.25;;;9.93;;
70707;SDS011;58277;47.316;18.908;2023-05-07T03:14:56;17.88;;;9.70;;
70707;SDS011;58277;47.316;18.908;2023-05-07T03:17:19;16.55;;;9.60;;
70707;SDS011;58277;47.316;18.908;2023-05-07T03:19:42;16.70;;;9.98;;
70707;SDS011;58277;47.316;18.908;2023-05-07T03:22:06;19.45;;;10.35;;
70707;SDS011;58277;47.316;18.908;2023-05-07T03:24:28;16.02;;;9.63;;
70707;SDS011;58277;47.316;18.908;2023-05-07T03:26:51;17.67;;;10.00;;
70707;SDS011;58277;47.316;18.908;2023-05-07T03:29:14;18.30;;;10.00;;
70707;SDS011;58277;47.316;18.908;2023-05-07T03:31:37;17.63;;;10.05;;
70707;SDS011;58277;47.316;18.908;2023-05-07T03:34:00;17.73;;;10.10;;
70707;SDS011;58277;47.316;18.908;2023-05-07T03:36:22;19.52;;;9.63;;
70707;SDS011;58277;47.316;18.908;2023-05-07T03:38:47;17.33;;;9.65;;
70707;SDS011;58277;47.316;18.908;2023-05-07T03:41:14;16.70;;;9.82;;
70707;SDS011;58277;47.316;18.908;2023-05-07T03:43:38;17.40;;;9.40;;
70707;SDS011;58277;47.316;18.908;2023-05-07T03:46:04;17.95;;;9.88;;
70707;SDS011;58277;47.316;18.908;2023-05-07T03:48:28;17.40;;;9.82;;
70707;SDS011;58277;47.316;18.908;2023-05-07T03:50:52;15.27;;;9.55;;
70707;SDS011;58277;47.316;18.908;2023-05-07T03:53:16;18.15;;;9.82;;
70707;SDS011;58277;47.316;18.908;2023-05-07T03:55:39;17.88;;;10.18;;
70707;SDS011;58277;47.316;18.908;2023-05-07T03:58:02;17.90;;;10.17;;
70707;SDS011;58277;47.316;18.908;2023-05-07T04:00:25;18.35;;;10.10;;
70707;SDS011;58277;47.316;18.908;2023-05-07T04:02:47;18.08;;;10.52;;
70707;SDS011;58277;47.316;18.908;2023-05-07T04:05:17;17.15;;;9.73;;
70707;SDS011;58277;47.316;18.908;2023-05-07T04:07:43;19.48;;;11.02;;
70707;SDS011;58277;47.316;18.908;2023-05-07T04:10:08;18.80;;;10.52;;
70707;SDS011;58277;47.316;18.908;2023-05-07T04:12:34;17.65;;;10.27;;
70707;SDS011;58277;47.316;18.908;2023-05-07T04:14:57;17.80;;;10.45;;
70707;SDS011;58277;47.316;18.908;2023-05-07T04:17:20;20.55;;;11.57;;
70707;SDS011;58277;47.316;18.908;2023-05-07T04:19:43;19.15;;;11.15;;
70707;SDS011;58277;47.316;18.908;2023-05-07T04:22:09;18.35;;;10.68;;
70707;SDS011;58277;47.316;18.908;2023-05-07T04:24:32;17.95;;;10.35;;
70707;SDS011;58277;47.316;18.908;2023-05-07T04:26:58;16.98;;;10.88;;
70707;SDS011;58277;47.316;18.908;2023-05-07T04:29:21;17.08;;;10.10;;
70707;SDS011;58277;47.316;18.908;2023-05-07T04:31:43;15.82;;;9.48;;
70707;SDS011;58277;47.316;18.908;2023-05-07T04:34:08;18.02;;;10.80;;
70707;SDS011;58277;47.316;18.908;2023-05-07T04:36:31;15.52;;;9.98;;
70707;SDS011;58277;47.316;18.908;2023-05-07T04:38:59;16.92;;;10.02;;
70707;SDS011;58277;47.316;18.908;2023-05-07T04:41:22;15.50;;;9.88;;
70707;SDS011;58277;47.316;18.908;2023-05-07T04:43:44;15.05;;;9.80;;
70707;SDS011;58277;47.316;18.908;2023-05-07T04:46:09;15.77;;;9.10;;
70707;SDS011;58277;47.316;18.908;2023-05-07T04:48:32;15.93;;;9.40;;
70707;SDS011;58277;47.316;18.908;2023-05-07T04:50:57;15.90;;;10.02;;
70707;SDS011;58277;47.316;18.908;2023-05-07T04:53:20;15.07;;;9.88;;
70707;SDS011;58277;47.316;18.908;2023-05-07T04:55:44;16.48;;;10.13;;
70707;SDS011;58277;47.316;18.908;2023-05-07T04:58:08;15.65;;;10.15;;
70707;SDS011;58277;47.316;18.908;2023-05-07T05:00:32;15.70;;;9.88;;
70707;SDS011;58277;47.316;18.908;2023-05-07T05:02:59;15.70;;;9.93;;
70707;SDS011;58277;47.316;18.908;2023-05-07T05:05:23;16.48;;;9.77;;
70707;SDS011;58277;47.316;18.908;2023-05-07T05:07:48;14.32;;;9.60;;
70707;SDS011;58277;47.316;18.908;2023-05-07T05:10:11;15.02;;;9.30;;
70707;SDS011;58277;47.316;18.908;2023-05-07T05:12:35;14.48;;;9.07;;
70707;SDS011;58277;47.316;18.908;2023-05-07T05:14:59;16.02;;;9.75;;
70707;SDS011;58277;47.316;18.908;2023-05-07T05:17:21;14.57;;;9.25;;
70707;SDS011;58277;47.316;18.908;2023-05-07T05:19:44;14.40;;;9.55;;
70707;SDS011;58277;47.316;18.908;2023-05-07T05:22:07;14.57;;;9.25;;
70707;SDS011;58277;47.316;18.908;2023-05-07T05:24:30;13.40;;;9.02;;
70707;SDS011;58277;47.316;18.908;2023-05-07T05:26:53;14.02;;;8.75;;
70707;SDS011;58277;47.316;18.908;2023-05-07T05:29:16;13.65;;;8.95;;
70707;SDS011;58277;47.316;18.908;2023-05-07T05:31:40;14.50;;;8.63;;
70707;SDS011;58277;47.316;18.908;2023-05-07T05:34:04;13.15;;;8.20;;
70707;SDS011;58277;47.316;18.908;2023-05-07T05:36:27;13.55;;;8.55;;
70707;SDS011;58277;47.316;18.908;2023-05-07T05:38:52;11.00;;;7.70;;
70707;SDS011;58277;47.316;18.908;2023-05-07T05:41:16;11.40;;;8.00;;
70707;SDS011;58277;47.316;18.908;2023-05-07T05:43:39;12.52;;;7.85;;
70707;SDS011;58277;47.316;18.908;2023-05-07T05:46:01;11.18;;;7.43;;
70707;SDS011;58277;47.316;18.908;2023-05-07T05:48:28;11.70;;;7.70;;
70707;SDS011;58277;47.316;18.908;2023-05-07T05:50:51;12.73;;;8.02;;
70707;SDS011;58277;47.316;18.908;2023-05-07T05:53:14;13.75;;;7.63;;
70707;SDS011;58277;47.316;18.908;2023-05-07T05:55:38;12.05;;;8.00;;
70707;SDS011;58277;47.316;18.908;2023-05-07T05:58:01;12.48;;;7.90;;
70707;SDS011;58277;47.316;18.908;2023-05-07T06:00:26;11.98;;;7.85;;
70707;SDS011;58277;47.316;18.908;2023-05-07T06:02:57;11.68;;;7.38;;
70707;SDS011;58277;47.316;18.908;2023-05-07T06:05:20;9.90;;;7.28;;
70707;SDS011;58277;47.316;18.908;2023-05-07T06:07:46;13.07;;;8.13;;
70707;SDS011;58277;47.316;18.908;2023-05-07T06:10:10;11.40;;;7.70;;
70707;SDS011;58277;47.316;18.908;2023-05-07T06:12:33;9.75;;;6.82;;
70707;SDS011;58277;47.316;18.908;2023-05-07T06:14:56;10.60;;;7.43;;
70707;SDS011;58277;47.316;18.908;2023-05-07T06:17:19;10.18;;;7.20;;
70707;SDS011;58277;47.316;18.908;2023-05-07T06:19:44;10.10;;;7.35;;
70707;SDS011;58277;47.316;18.908;2023-05-07T06:22:08;12.05;;;7.30;;
70707;SDS011;58277;47.316;18.908;2023-05-07T06:24:32;10.20;;;7.20;;
70707;SDS011;58277;47.316;18.908;2023-05-07T06:26:54;11.43;;;8.02;;
70707;SDS011;58277;47.316;18.908;2023-05-07T06:32:21;11.02;;;7.05;;
70707;SDS011;58277;47.316;18.908;2023-05-07T06:34:45;9.85;;;7.05;;
70707;SDS011;58277;47.316;18.908;2023-05-07T06:37:09;8.90;;;6.38;;
70707;SDS011;58277;47.316;18.908;2023-05-07T06:39:52;8.25;;;6.05;;
70707;SDS011;58277;47.316;18.908;2023-05-07T06:42:15;8.57;;;6.07;;
70707;SDS011;58277;47.316;18.908;2023-05-07T06:44:41;9.60;;;5.85;;
70707;SDS011;58277;47.316;18.908;2023-05-07T06:47:07;8.00;;;5.88;;
70707;SDS011;58277;47.316;18.908;2023-05-07T06:49:33;8.48;;;5.45;;
70707;SDS011;58277;47.316;18.908;2023-05-07T06:51:56;7.72;;;5.57;;
70707;SDS011;58277;47.316;18.908;2023-05-07T06:54:18;7.30;;;5.32;;
70707;SDS011;58277;47.316;18.908;2023-05-07T06:56:43;7.70;;;5.05;;
70707;SDS011;58277;47.316;18.908;2023-05-07T06:59:05;7.68;;;5.35;;
70707;SDS011;58277;47.316;18.908;2023-05-07T07:01:33;8.23;;;5.25;;
70707;SDS011;58277;47.316;18.908;2023-05-07T07:03:57;6.40;;;5.07;;
70707;SDS011;58277;47.316;18.908;2023-05-07T07:06:20;6.45;;;4.70;;
70707;SDS011;58277;47.316;18.908;2023-05-07T07:08:44;5.78;;;4.55;;
70707;SDS011;58277;47.316;18.908;2023-05-07T07:11:09;6.38;;;4.40;;
70707;SDS011;58277;47.316;18.908;2023-05-07T07:13:32;6.07;;;4.40;;
70707;SDS011;58277;47.316;18.908;2023-05-07T07:15:55;7.28;;;4.85;;
70707;SDS011;58277;47.316;18.908;2023-05-07T07:18:18;5.78;;;4.57;;
70707;SDS011;58277;47.316;18.908;2023-05-07T07:20:43;7.13;;;5.18;;
70707;SDS011;58277;47.316;18.908;2023-05-07T07:23:06;7.68;;;5.40;;
70707;SDS011;58277;47.316;18.908;2023-05-07T07:25:29;9.68;;;5.88;;
70707;SDS011;58277;47.316;18.908;2023-05-07T07:27:52;7.28;;;5.72;;
70707;SDS011;58277;47.316;18.908;2023-05-07T07:30:16;6.90;;;5.38;;
70707;SDS011;58277;47.316;18.908;2023-05-07T07:32:43;7.45;;;5.50;;
70707;SDS011;58277;47.316;18.908;2023-05-07T07:35:06;8.23;;;5.32;;
70707;SDS011;58277;47.316;18.908;2023-05-07T07:37:30;7.50;;;5.60;;
70707;SDS011;58277;47.316;18.908;2023-05-07T07:39:53;8.75;;;6.30;;
70707;SDS011;58277;47.316;18.908;2023-05-07T07:42:16;10.50;;;7.43;;
70707;SDS011;58277;47.316;18.908;2023-05-07T07:44:40;12.93;;;6.90;;
70707;SDS011;58277;47.316;18.908;2023-05-07T07:47:05;10.05;;;7.30;;
70707;SDS011;58277;47.316;18.908;2023-05-07T07:49:29;10.13;;;7.22;;
70707;SDS011;58277;47.316;18.908;2023-05-07T07:51:54;9.88;;;6.40;;
70707;SDS011;58277;47.316;18.908;2023-05-07T07:54:19;10.23;;;6.90;;
70707;SDS011;58277;47.316;18.908;2023-05-07T07:56:42;8.77;;;6.57;;
70707;SDS011;58277;47.316;18.908;2023-05-07T07:59:07;8.68;;;6.57;;
70707;SDS011;58277;47.316;18.908;2023-05-07T08:01:32;8.63;;;6.22;;
70707;SDS011;58277;47.316;18.908;2023-05-07T08:03:55;8.07;;;6.47;;
70707;SDS011;58277;47.316;18.908;2023-05-07T08:06:22;9.07;;;6.10;;
70707;SDS011;58277;47.316;18.908;2023-05-07T08:08:45;8.32;;;6.13;;
70707;SDS011;58277;47.316;18.908;2023-05-07T08:11:10;9.00;;;6.47;;
70707;SDS011;58277;47.316;18.908;2023-05-07T08:13:33;11.00;;;6.53;;
70707;SDS011;58277;47.316;18.908;2023-05-07T08:15:55;10.23;;;7.07;;
70707;SDS011;58277;47.316;18.908;2023-05-07T08:18:19;11.93;;;7.20;;
70707;SDS011;58277;47.316;18.908;2023-05-07T08:20:43;8.60;;;6.50;;
70707;SDS011;58277;47.316;18.908;2023-05-07T08:23:10;8.63;;;6.50;;
70707;SDS011;58277;47.316;18.908;2023-05-07T08:25:34;8.90;;;6.07;;
70707;SDS011;58277;47.316;18.908;2023-05-07T08:28:09;9.48;;;6.25;;
70707;SDS011;58277;47.316;18.908;2023-05-07T08:30:33;9.73;;;6.90;;
70707;SDS011;58277;47.316;18.908;2023-05-07T08:32:55;9.32;;;6.50;;
70707;SDS011;58277;47.316;18.908;2023-05-07T08:35:18;9.95;;;6.45;;
70707;SDS011;58277;47.316;18.908;2023-05-07T08:37:41;9.50;;;6.55;;
70707;SDS011;58277;47.316;18.908;2023-05-07T08:40:04;10.93;;;7.22;;
70707;SDS011;58277;47.316;18.908;2023-05-07T08:42:35;10.57;;;6.57;;
70707;SDS011;58277;47.316;18.908;2023-05-07T08:44:59;9.52;;;6.80;;
70707;SDS011;58277;47.316;18.908;2023-05-07T08:47:23;9.43;;;6.82;;
70707;SDS011;58277;47.316;18.908;2023-05-07T08:49:53;10.57;;;6.90;;
70707;SDS011;58277;47.316;18.908;2023-05-07T08:52:18;9.18;;;7.03;;
70707;SDS011;58277;47.316;18.908;2023-05-07T08:54:43;9.18;;;6.72;;
70707;SDS011;58277;47.316;18.908;2023-05-07T08:57:06;8.77;;;6.68;;
70707;SDS011;58277;47.316;18.908;2023-05-07T08:59:30;9.20;;;6.38;;
70707;SDS011;58277;47.316;18.908;2023-05-07T09:01:53;8.73;;;6.28;;
70707;SDS011;58277;47.316;18.908;2023-05-07T09:04:16;9.57;;;6.78;;
70707;SDS011;58277;47.316;18.908;2023-05-07T09:06:40;9.88;;;6.68;;
70707;SDS011;58277;47.316;18.908;2023-05-07T09:09:06;10.18;;;6.88;;
70707;SDS011;58277;47.316;18.908;2023-05-07T09:11:29;9.88;;;6.72;;
70707;SDS011;58277;47.316;18.908;2023-05-07T09:13:55;9.63;;;6.90;;
70707;SDS011;58277;47.316;18.908;2023-05-07T09:16:21;8.18;;;6.18;;
70707;SDS011;58277;47.316;18.908;2023-05-07T09:18:45;8.40;;;6.05;;
70707;SDS011;58277;47.316;18.908;2023-05-07T09:21:10;8.77;;;6.20;;
70707;SDS011;58277;47.316;18.908;2023-05-07T09:23:34;9.57;;;6.15;;
70707;SDS011;58277;47.316;18.908;2023-05-07T09:25:59;8.80;;;6.50;;
70707;SDS011;58277;47.316;18.908;2023-05-07T09:28:26;8.10;;;5.82;;
70707;SDS011;58277;47.316;18.908;2023-05-07T09:30:49;8.35;;;5.93;;
70707;SDS011;58277;47.316;18.908;2023-05-07T09:33:12;7.78;;;5.40;;
70707;SDS011;58277;47.316;18.908;2023-05-07T09:35:39;6.70;;;4.65;;
70707;SDS011;58277;47.316;18.908;2023-05-07T09:38:07;6.10;;;4.38;;
70707;SDS011;58277;47.316;18.908;2023-05-07T09:40:31;6.60;;;4.53;;
70707;SDS011;58277;47.316;18.908;2023-05-07T09:43:09;6.03;;;4.35;;
70707;SDS011;58277;47.316;18.908;2023-05-07T09:45:36;6.80;;;4.00;;
70707;SDS011;58277;47.316;18.908;2023-05-07T09:48:01;4.50;;;3.67;;
70707;SDS011;58277;47.316;18.908;2023-05-07T09:50:29;7.28;;;4.45;;
70707;SDS011;58277;47.316;18.908;2023-05-07T09:52:55;5.95;;;4.25;;
70707;SDS011;58277;47.316;18.908;2023-05-07T09:55:20;5.82;;;4.40;;
70707;SDS011;58277;47.316;18.908;2023-05-07T09:57:43;6.35;;;4.55;;
70707;SDS011;58277;47.316;18.908;2023-05-07T10:00:07;6.97;;;4.93;;
70707;SDS011;58277;47.316;18.908;2023-05-07T10:02:44;7.35;;;4.78;;
70707;SDS011;58277;47.316;18.908;2023-05-07T10:05:12;6.97;;;5.05;;
70707;SDS011;58277;47.316;18.908;2023-05-07T10:07:37;7.13;;;5.03;;
70707;SDS011;58277;47.316;18.908;2023-05-07T10:10:03;8.07;;;5.40;;
70707;SDS011;58277;47.316;18.908;2023-05-07T10:12:32;6.72;;;5.25;;
70707;SDS011;58277;47.316;18.908;2023-05-07T10:15:09;7.03;;;5.38;;
70707;SDS011;58277;47.316;18.908;2023-05-07T10:17:37;7.18;;;5.35;;
70707;SDS011;58277;47.316;18.908;2023-05-07T10:20:03;7.93;;;5.78;;
70707;SDS011;58277;47.316;18.908;2023-05-07T10:22:32;8.15;;;5.25;;
70707;SDS011;58277;47.316;18.908;2023-05-07T10:25:09;8.18;;;5.90;;
70707;SDS011;58277;47.316;18.908;2023-05-07T10:27:40;7.80;;;5.68;;
70707;SDS011;58277;47.316;18.908;2023-05-07T10:30:51;10.13;;;6.38;;
70707;SDS011;58277;47.316;18.908;2023-05-07T10:33:03;10.50;;;7.03;;
70707;SDS011;58277;47.316;18.908;2023-05-07T10:35:31;10.57;;;6.28;;
70707;SDS011;58277;47.316;18.908;2023-05-07T10:37:59;8.38;;;6.20;;
70707;SDS011;58277;47.316;18.908;2023-05-07T10:40:25;8.95;;;6.30;;
70707;SDS011;58277;47.316;18.908;2023-05-07T10:43:04;8.82;;;5.95;;
70707;SDS011;58277;47.316;18.908;2023-05-07T10:46:08;8.75;;;5.60;;
70707;SDS011;58277;47.316;18.908;2023-05-07T10:48:34;8.52;;;6.22;;
70707;SDS011;58277;47.316;18.908;2023-05-07T10:51:18;7.97;;;5.80;;
70707;SDS011;58277;47.316;18.908;2023-05-07T10:53:47;7.68;;;6.30;;
70707;SDS011;58277;47.316;18.908;2023-05-07T10:58:55;8.13;;;6.28;;
70707;SDS011;58277;47.316;18.908;2023-05-07T11:04:28;8.50;;;6.43;;
70707;SDS011;58277;47.316;18.908;2023-05-07T11:07:27;7.90;;;6.30;;
70707;SDS011;58277;47.316;18.908;2023-05-07T11:09:59;9.20;;;6.80;;
70707;SDS011;58277;47.316;18.908;2023-05-07T11:15:08;10.27;;;7.43;;
70707;SDS011;58277;47.316;18.908;2023-05-07T11:17:33;10.60;;;7.95;;
70707;SDS011;58277;47.316;18.908;2023-05-07T11:20:02;11.32;;;6.97;;
70707;SDS011;58277;47.316;18.908;2023-05-07T11:25:05;8.60;;;6.45;;
70707;SDS011;58277;47.316;18.908;2023-05-07T11:27:29;7.05;;;5.40;;
70707;SDS011;58277;47.316;18.908;2023-05-07T11:29:54;6.15;;;4.85;;
70707;SDS011;58277;47.316;18.908;2023-05-07T11:32:22;6.03;;;4.72;;
70707;SDS011;58277;47.316;18.908;2023-05-07T11:34:52;6.10;;;4.80;;
70707;SDS011;58277;47.316;18.908;2023-05-07T11:37:20;5.85;;;4.88;;
70707;SDS011;58277;47.316;18.908;2023-05-07T11:39:49;5.43;;;4.70;;
70707;SDS011;58277;47.316;18.908;2023-05-07T11:44:49;5.35;;;4.15;;
70707;SDS011;58277;47.316;18.908;2023-05-07T11:47:16;4.97;;;4.32;;
70707;SDS011;58277;47.316;18.908;2023-05-07T11:49:40;5.57;;;4.13;;
70707;SDS011;58277;47.316;18.908;2023-05-07T11:52:03;4.63;;;4.10;;
70707;SDS011;58277;47.316;18.908;2023-05-07T11:54:34;4.75;;;4.22;;
70707;SDS011;58277;47.316;18.908;2023-05-07T11:56:58;4.55;;;4.13;;
70707;SDS011;58277;47.316;18.908;2023-05-07T11:59:22;5.55;;;4.38;;
70707;SDS011;58277;47.316;18.908;2023-05-07T12:01:47;6.05;;;4.10;;
70707;SDS011;58277;47.316;18.908;2023-05-07T12:04:10;6.20;;;3.95;;
70707;SDS011;58277;47.316;18.908;2023-05-07T12:06:35;5.28;;;4.30;;
70707;SDS011;58277;47.316;18.908;2023-05-07T12:08:59;5.82;;;4.30;;
70707;SDS011;58277;47.316;18.908;2023-05-07T12:11:23;5.13;;;3.88;;
70707;SDS011;58277;47.316;18.908;2023-05-07T12:13:47;5.47;;;4.35;;
70707;SDS011;58277;47.316;18.908;2023-05-07T12:16:10;6.28;;;3.95;;
70707;SDS011;58277;47.316;18.908;2023-05-07T12:18:33;4.70;;;3.60;;
70707;SDS011;58277;47.316;18.908;2023-05-07T12:20:57;5.50;;;3.80;;
70707;SDS011;58277;47.316;18.908;2023-05-07T12:23:21;4.30;;;3.80;;
70707;SDS011;58277;47.316;18.908;2023-05-07T12:25:44;4.93;;;3.92;;
70707;SDS011;58277;47.316;18.908;2023-05-07T12:28:12;5.28;;;4.25;;
70707;SDS011;58277;47.316;18.908;2023-05-07T12:30:38;6.20;;;4.40;;
70707;SDS011;58277;47.316;18.908;2023-05-07T12:33:01;4.93;;;4.10;;
70707;SDS011;58277;47.316;18.908;2023-05-07T12:35:28;5.40;;;4.20;;
70707;SDS011;58277;47.316;18.908;2023-05-07T12:37:54;6.57;;;4.07;;
70707;SDS011;58277;47.316;18.908;2023-05-07T12:40:22;4.57;;;4.10;;
70707;SDS011;58277;47.316;18.908;2023-05-07T12:42:45;7.15;;;5.28;;
70707;SDS011;58277;47.316;18.908;2023-05-07T12:45:11;5.55;;;4.57;;
70707;SDS011;58277;47.316;18.908;2023-05-07T12:47:35;5.97;;;4.75;;
70707;SDS011;58277;47.316;18.908;2023-05-07T12:49:59;7.57;;;4.50;;
70707;SDS011;58277;47.316;18.908;2023-05-07T12:52:22;5.82;;;4.38;;
70707;SDS011;58277;47.316;18.908;2023-05-07T12:54:44;6.03;;;4.45;;
70707;SDS011;58277;47.316;18.908;2023-05-07T12:57:08;8.27;;;4.70;;
70707;SDS011;58277;47.316;18.908;2023-05-07T12:59:38;6.20;;;4.60;;
70707;SDS011;58277;47.316;18.908;2023-05-07T13:02:03;5.88;;;4.78;;
70707;SDS011;58277;47.316;18.908;2023-05-07T13:04:27;5.75;;;4.40;;
70707;SDS011;58277;47.316;18.908;2023-05-07T13:06:50;5.57;;;4.60;;
70707;SDS011;58277;47.316;18.908;2023-05-07T13:09:13;5.25;;;4.57;;
70707;SDS011;58277;47.316;18.908;2023-05-07T13:11:35;6.13;;;4.60;;
70707;SDS011;58277;47.316;18.908;2023-05-07T13:13:58;6.40;;;4.50;;
70707;SDS011;58277;47.316;18.908;2023-05-07T13:16:21;5.28;;;4.63;;
70707;SDS011;58277;47.316;18.908;2023-05-07T13:18:43;5.32;;;4.05;;
70707;SDS011;58277;47.316;18.908;2023-05-07T13:21:08;6.25;;;4.63;;
70707;SDS011;58277;47.316;18.908;2023-05-07T13:23:32;6.07;;;4.60;;
70707;SDS011;58277;47.316;18.908;2023-05-07T13:25:55;8.57;;;5.00;;
70707;SDS011;58277;47.316;18.908;2023-05-07T13:28:18;5.00;;;4.40;;
70707;SDS011;58277;47.316;18.908;2023-05-07T13:30:41;5.05;;;4.22;;
70707;SDS011;58277;47.316;18.908;2023-05-07T13:33:04;5.07;;;4.38;;
70707;SDS011;58277;47.316;18.908;2023-05-07T13:35:27;5.55;;;4.10;;
70707;SDS011;58277;47.316;18.908;2023-05-07T13:37:50;6.45;;;4.00;;
70707;SDS011;58277;47.316;18.908;2023-05-07T13:40:14;5.47;;;4.15;;
70707;SDS011;58277;47.316;18.908;2023-05-07T13:42:37;4.47;;;3.45;;
70707;SDS011;58277;47.316;18.908;2023-05-07T13:45:00;3.97;;;3.55;;
70707;SDS011;58277;47.316;18.908;2023-05-07T13:47:24;4.38;;;3.60;;
70707;SDS011;58277;47.316;18.908;2023-05-07T13:49:47;4.28;;;3.20;;
70707;SDS011;58277;47.316;18.908;2023-05-07T13:52:11;3.72;;;3.33;;
70707;SDS011;58277;47.316;18.908;2023-05-07T13:54:34;4.18;;;3.35;;
70707;SDS011;58277;47.316;18.908;2023-05-07T13:56:57;3.63;;;3.20;;
70707;SDS011;58277;47.316;18.908;2023-05-07T13:59:20;4.30;;;3.40;;
70707;SDS011;58277;47.316;18.908;2023-05-07T14:01:43;4.55;;;3.97;;
70707;SDS011;58277;47.316;18.908;2023-05-07T14:04:05;4.95;;;3.67;;
70707;SDS011;58277;47.316;18.908;2023-05-07T14:06:28;5.78;;;3.92;;
70707;SDS011;58277;47.316;18.908;2023-05-07T14:08:51;4.93;;;3.85;;
70707;SDS011;58277;47.316;18.908;2023-05-07T14:11:14;6.28;;;3.60;;
70707;SDS011;58277;47.316;18.908;2023-05-07T14:13:37;4.00;;;3.20;;
70707;SDS011;58277;47.316;18.908;2023-05-07T14:15:59;5.35;;;3.45;;
70707;SDS011;58277;47.316;18.908;2023-05-07T14:18:22;6.80;;;3.88;;
70707;SDS011;58277;47.316;18.908;2023-05-07T14:20:45;7.35;;;3.55;;
70707;SDS011;58277;47.316;18.908;2023-05-07T14:23:10;5.05;;;3.90;;
70707;SDS011;58277;47.316;18.908;2023-05-07T14:25:33;6.28;;;3.78;;
70707;SDS011;58277;47.316;18.908;2023-05-07T14:27:56;7.88;;;3.80;;